sensor_id;sensor_type;location;lat;lon;timestamp;temperature;humidity
573;DHT22;271;51.114;13.780;2022-12-07T00:01:31;2.70;12.40
573;DHT22;271;51.114;13.780;2022-12-07T00:04:02;2.80;12.30
573;DHT22;271;51.114;13.780;2022-12-07T00:06:31;2.80;10.90
573;DHT22;271;51.114;13.780;2022-12-07T00:09:00;2.90;12.10
573;DHT22;271;51.114;13.780;2022-12-07T00:11:28;2.90;10.60
573;DHT22;271;51.114;13.780;2022-12-07T00:13:57;2.70;6.70
573;DHT22;271;51.114;13.780;2022-12-07T00:16:26;2.70;7.20
573;DHT22;271;51.114;13.780;2022-12-07T00:18:54;2.80;6.80
573;DHT22;271;51.114;13.780;2022-12-07T00:21:23;2.80;5.50
573;DHT22;271;51.114;13.780;2022-12-07T00:23:52;2.80;2.70
573;DHT22;271;51.114;13.780;2022-12-07T00:26:23;2.70;2.40
573;DHT22;271;51.114;13.780;2022-12-07T00:28:52;2.80;5.00
573;DHT22;271;51.114;13.780;2022-12-07T00:31:21;2.90;3.70
573;DHT22;271;51.114;13.780;2022-12-07T00:33:49;2.90;2.30
573;DHT22;271;51.114;13.780;2022-12-07T00:36:20;2.90;1.00
573;DHT22;271;51.114;13.780;2022-12-07T00:38:47;2.80;1.00
573;DHT22;271;51.114;13.780;2022-12-07T00:41:17;2.80;1.60
573;DHT22;271;51.114;13.780;2022-12-07T00:43:47;2.80;3.50
573;DHT22;271;51.114;13.780;2022-12-07T00:46:15;2.90;2.60
573;DHT22;271;51.114;13.780;2022-12-07T00:48:43;2.90;1.90
573;DHT22;271;51.114;13.780;2022-12-07T00:51:11;2.90;1.00
573;DHT22;271;51.114;13.780;2022-12-07T00:53:39;2.70;1.00
573;DHT22;271;51.114;13.780;2022-12-07T00:56:07;2.80;1.00
573;DHT22;271;51.114;13.780;2022-12-07T00:58:35;2.70;1.00
573;DHT22;271;51.114;13.780;2022-12-07T01:01:05;2.80;1.00
573;DHT22;271;51.114;13.780;2022-12-07T01:03:33;2.70;1.00
573;DHT22;271;51.114;13.780;2022-12-07T01:06:01;2.80;1.00
573;DHT22;271;51.114;13.780;2022-12-07T01:08:28;2.80;1.00
573;DHT22;271;51.114;13.780;2022-12-07T01:10:59;2.80;1.00
573;DHT22;271;51.114;13.780;2022-12-07T01:13:28;2.80;1.00
573;DHT22;271;51.114;13.780;2022-12-07T01:15:57;2.80;1.00
573;DHT22;271;51.114;13.780;2022-12-07T01:18:27;2.80;1.00
573;DHT22;271;51.114;13.780;2022-12-07T01:20:59;2.80;1.00
573;DHT22;271;51.114;13.780;2022-12-07T01:23:27;2.70;1.00
573;DHT22;271;51.114;13.780;2022-12-07T01:25:55;2.80;1.00
573;DHT22;271;51.114;13.780;2022-12-07T01:28:23;2.80;1.00
573;DHT22;271;51.114;13.780;2022-12-07T01:30:58;2.80;1.00
573;DHT22;271;51.114;13.780;2022-12-07T01:33:28;2.80;1.00
573;DHT22;271;51.114;13.780;2022-12-07T01:36:01;2.70;1.00
573;DHT22;271;51.114;13.780;2022-12-07T01:38:29;2.70;1.00
573;DHT22;271;51.114;13.780;2022-12-07T01:40:57;2.80;1.00
573;DHT22;271;51.114;13.780;2022-12-07T01:43:28;2.80;1.00
573;DHT22;271;51.114;13.780;2022-12-07T01:45:56;2.90;1.00
573;DHT22;271;51.114;13.780;2022-12-07T01:48:28;2.90;1.00
573;DHT22;271;51.114;13.780;2022-12-07T01:51:01;2.90;1.00
573;DHT22;271;51.114;13.780;2022-12-07T01:53:30;2.90;1.00
573;DHT22;271;51.114;13.780;2022-12-07T01:55:58;3.00;1.00
573;DHT22;271;51.114;13.780;2022-12-07T01:58:26;3.00;1.00
573;DHT22;271;51.114;13.780;2022-12-07T02:00:53;3.10;1.00
573;DHT22;271;51.114;13.780;2022-12-07T02:03:25;2.90;1.00
573;DHT22;271;51.114;13.780;2022-12-07T02:05:56;2.80;1.00
573;DHT22;271;51.114;13.780;2022-12-07T02:08:25;2.90;1.00
573;DHT22;271;51.114;13.780;2022-12-07T02:10:53;2.90;1.00
573;DHT22;271;51.114;13.780;2022-12-07T02:13:22;2.90;1.00
573;DHT22;271;51.114;13.780;2022-12-07T02:16:12;3.00;1.00
573;DHT22;271;51.114;13.780;2022-12-07T02:18:48;2.90;1.00
573;DHT22;271;51.114;13.780;2022-12-07T02:21:30;2.90;1.00
573;DHT22;271;51.114;13.780;2022-12-07T02:24:19;2.90;1.00
573;DHT22;271;51.114;13.780;2022-12-07T02:29:47;2.80;1.00
573;DHT22;271;51.114;13.780;2022-12-07T02:32:21;2.80;1.00
573;DHT22;271;51.114;13.780;2022-12-07T02:34:54;2.70;1.00
573;DHT22;271;51.114;13.780;2022-12-07T02:37:32;2.70;1.00
573;DHT22;271;51.114;13.780;2022-12-07T02:40:07;2.60;1.00
573;DHT22;271;51.114;13.780;2022-12-07T02:42:40;2.60;1.00
573;DHT22;271;51.114;13.780;2022-12-07T02:45:14;2.60;1.00
573;DHT22;271;51.114;13.780;2022-12-07T02:47:43;2.50;1.00
573;DHT22;271;51.114;13.780;2022-12-07T02:50:12;2.40;1.00
573;DHT22;271;51.114;13.780;2022-12-07T02:52:39;2.40;1.00
573;DHT22;271;51.114;13.780;2022-12-07T02:55:07;2.30;1.00
573;DHT22;271;51.114;13.780;2022-12-07T02:57:45;2.30;1.00
573;DHT22;271;51.114;13.780;2022-12-07T03:00:19;2.30;1.00
573;DHT22;271;51.114;13.780;2022-12-07T03:02:53;2.30;1.00
573;DHT22;271;51.114;13.780;2022-12-07T03:05:37;2.30;1.00
573;DHT22;271;51.114;13.780;2022-12-07T03:08:13;2.30;1.00
573;DHT22;271;51.114;13.780;2022-12-07T03:10:59;2.30;1.00
573;DHT22;271;51.114;13.780;2022-12-07T03:13:30;2.20;1.00
573;DHT22;271;51.114;13.780;2022-12-07T03:16:05;2.20;1.00
573;DHT22;271;51.114;13.780;2022-12-07T03:18:38;2.10;1.00
573;DHT22;271;51.114;13.780;2022-12-07T03:21:11;2.00;1.00
573;DHT22;271;51.114;13.780;2022-12-07T03:23:42;2.00;1.00
573;DHT22;271;51.114;13.780;2022-12-07T03:26:12;2.00;1.00
573;DHT22;271;51.114;13.780;2022-12-07T03:28:46;2.00;1.00
573;DHT22;271;51.114;13.780;2022-12-07T03:31:19;1.90;1.00
573;DHT22;271;51.114;13.780;2022-12-07T03:33:54;2.00;1.00
573;DHT22;271;51.114;13.780;2022-12-07T03:36:27;1.90;1.00
573;DHT22;271;51.114;13.780;2022-12-07T03:39:00;1.80;1.00
573;DHT22;271;51.114;13.780;2022-12-07T03:41:31;1.90;1.00
573;DHT22;271;51.114;13.780;2022-12-07T03:44:00;1.80;1.00
573;DHT22;271;51.114;13.780;2022-12-07T03:46:34;1.70;1.00
573;DHT22;271;51.114;13.780;2022-12-07T03:49:07;1.60;1.00
573;DHT22;271;51.114;13.780;2022-12-07T03:51:40;1.60;1.00
573;DHT22;271;51.114;13.780;2022-12-07T03:54:13;1.60;1.00
573;DHT22;271;51.114;13.780;2022-12-07T03:56:43;1.60;1.00
573;DHT22;271;51.114;13.780;2022-12-07T03:59:11;1.60;1.00
573;DHT22;271;51.114;13.780;2022-12-07T04:01:43;1.60;1.00
573;DHT22;271;51.114;13.780;2022-12-07T04:04:10;1.50;1.00
573;DHT22;271;51.114;13.780;2022-12-07T04:06:37;1.60;1.00
573;DHT22;271;51.114;13.780;2022-12-07T04:09:05;1.70;2.80
573;DHT22;271;51.114;13.780;2022-12-07T04:11:32;1.70;1.00
573;DHT22;271;51.114;13.780;2022-12-07T04:14:00;1.70;1.00
573;DHT22;271;51.114;13.780;2022-12-07T04:16:47;1.70;1.00
573;DHT22;271;51.114;13.780;2022-12-07T04:19:16;1.70;1.00
573;DHT22;271;51.114;13.780;2022-12-07T04:21:44;1.60;1.00
573;DHT22;271;51.114;13.780;2022-12-07T04:24:11;1.60;1.00
573;DHT22;271;51.114;13.780;2022-12-07T04:26:39;1.60;1.00
573;DHT22;271;51.114;13.780;2022-12-07T04:29:07;1.50;1.00
573;DHT22;271;51.114;13.780;2022-12-07T04:31:34;1.50;1.00
573;DHT22;271;51.114;13.780;2022-12-07T04:34:04;1.50;1.00
573;DHT22;271;51.114;13.780;2022-12-07T04:36:32;1.40;1.00
573;DHT22;271;51.114;13.780;2022-12-07T04:39:00;1.40;1.00
573;DHT22;271;51.114;13.780;2022-12-07T04:41:28;1.40;1.00
573;DHT22;271;51.114;13.780;2022-12-07T04:43:55;1.50;1.00
573;DHT22;271;51.114;13.780;2022-12-07T04:46:23;1.40;1.00
573;DHT22;271;51.114;13.780;2022-12-07T04:48:51;1.40;1.00
573;DHT22;271;51.114;13.780;2022-12-07T04:51:22;1.40;1.00
573;DHT22;271;51.114;13.780;2022-12-07T04:53:51;1.50;1.00
573;DHT22;271;51.114;13.780;2022-12-07T04:56:18;1.40;1.00
573;DHT22;271;51.114;13.780;2022-12-07T04:58:47;1.40;1.00
573;DHT22;271;51.114;13.780;2022-12-07T05:01:15;1.40;1.00
573;DHT22;271;51.114;13.780;2022-12-07T05:03:43;1.40;1.00
573;DHT22;271;51.114;13.780;2022-12-07T05:06:11;1.40;1.00
573;DHT22;271;51.114;13.780;2022-12-07T05:08:41;1.40;1.00
573;DHT22;271;51.114;13.780;2022-12-07T05:11:09;1.40;1.00
573;DHT22;271;51.114;13.780;2022-12-07T05:13:56;1.40;1.00
573;DHT22;271;51.114;13.780;2022-12-07T05:16:24;1.40;1.00
573;DHT22;271;51.114;13.780;2022-12-07T05:18:51;1.30;1.00
573;DHT22;271;51.114;13.780;2022-12-07T05:21:19;1.20;1.00
573;DHT22;271;51.114;13.780;2022-12-07T05:23:48;1.30;1.00
573;DHT22;271;51.114;13.780;2022-12-07T05:26:17;1.30;1.00
573;DHT22;271;51.114;13.780;2022-12-07T05:28:44;1.40;1.00
573;DHT22;271;51.114;13.780;2022-12-07T05:31:12;1.50;1.00
573;DHT22;271;51.114;13.780;2022-12-07T05:33:39;1.50;1.00
573;DHT22;271;51.114;13.780;2022-12-07T05:36:07;1.50;1.00
573;DHT22;271;51.114;13.780;2022-12-07T05:38:34;1.50;1.00
573;DHT22;271;51.114;13.780;2022-12-07T05:41:04;1.60;1.00
573;DHT22;271;51.114;13.780;2022-12-07T05:43:33;1.60;1.00
573;DHT22;271;51.114;13.780;2022-12-07T05:46:00;1.60;1.00
573;DHT22;271;51.114;13.780;2022-12-07T05:48:27;1.60;1.00
573;DHT22;271;51.114;13.780;2022-12-07T05:50:55;1.70;1.00
573;DHT22;271;51.114;13.780;2022-12-07T05:53:22;1.80;1.00
573;DHT22;271;51.114;13.780;2022-12-07T05:55:49;1.80;1.00
573;DHT22;271;51.114;13.780;2022-12-07T05:58:18;1.80;1.00
573;DHT22;271;51.114;13.780;2022-12-07T06:01:03;1.90;1.00
573;DHT22;271;51.114;13.780;2022-12-07T06:03:30;2.00;1.00
573;DHT22;271;51.114;13.780;2022-12-07T06:05:58;2.00;1.00
573;DHT22;271;51.114;13.780;2022-12-07T06:08:25;2.00;1.00
573;DHT22;271;51.114;13.780;2022-12-07T06:10:52;2.00;1.00
573;DHT22;271;51.114;13.780;2022-12-07T06:13:41;2.20;1.00
573;DHT22;271;51.114;13.780;2022-12-07T06:16:07;2.00;1.00
573;DHT22;271;51.114;13.780;2022-12-07T06:18:35;2.00;1.00
573;DHT22;271;51.114;13.780;2022-12-07T06:21:02;2.00;1.00
573;DHT22;271;51.114;13.780;2022-12-07T06:23:29;2.00;1.00
573;DHT22;271;51.114;13.780;2022-12-07T06:25:57;2.00;1.00
573;DHT22;271;51.114;13.780;2022-12-07T06:28:24;2.00;1.00
573;DHT22;271;51.114;13.780;2022-12-07T06:30:58;1.90;1.00
573;DHT22;271;51.114;13.780;2022-12-07T06:33:26;1.90;1.00
573;DHT22;271;51.114;13.780;2022-12-07T06:35:54;2.00;1.00
573;DHT22;271;51.114;13.780;2022-12-07T06:38:22;2.00;1.00
573;DHT22;271;51.114;13.780;2022-12-07T06:40:49;2.00;1.00
573;DHT22;271;51.114;13.780;2022-12-07T06:43:16;2.10;1.00
573;DHT22;271;51.114;13.780;2022-12-07T06:45:44;2.10;1.00
573;DHT22;271;51.114;13.780;2022-12-07T06:48:12;2.20;1.00
573;DHT22;271;51.114;13.780;2022-12-07T06:50:40;2.20;1.00
573;DHT22;271;51.114;13.780;2022-12-07T06:53:08;2.30;1.00
573;DHT22;271;51.114;13.780;2022-12-07T06:55:36;2.40;1.00
573;DHT22;271;51.114;13.780;2022-12-07T06:58:03;2.30;1.00
573;DHT22;271;51.114;13.780;2022-12-07T07:00:31;2.40;1.00
573;DHT22;271;51.114;13.780;2022-12-07T07:03:00;2.50;1.00
573;DHT22;271;51.114;13.780;2022-12-07T07:05:29;2.40;1.00
573;DHT22;271;51.114;13.780;2022-12-07T07:07:56;2.30;1.00
573;DHT22;271;51.114;13.780;2022-12-07T07:10:24;2.30;1.00
573;DHT22;271;51.114;13.780;2022-12-07T07:12:51;2.40;1.00
573;DHT22;271;51.114;13.780;2022-12-07T07:15:18;2.40;1.00
573;DHT22;271;51.114;13.780;2022-12-07T07:17:46;2.40;1.00
573;DHT22;271;51.114;13.780;2022-12-07T07:20:14;2.50;1.00
573;DHT22;271;51.114;13.780;2022-12-07T07:22:43;2.30;1.00
573;DHT22;271;51.114;13.780;2022-12-07T07:25:11;2.30;1.00
573;DHT22;271;51.114;13.780;2022-12-07T07:27:38;2.30;1.00
573;DHT22;271;51.114;13.780;2022-12-07T07:30:07;2.20;1.00
573;DHT22;271;51.114;13.780;2022-12-07T07:32:34;2.20;1.00
573;DHT22;271;51.114;13.780;2022-12-07T07:35:02;2.20;1.00
573;DHT22;271;51.114;13.780;2022-12-07T07:37:29;2.20;1.00
573;DHT22;271;51.114;13.780;2022-12-07T07:39:58;2.20;1.10
573;DHT22;271;51.114;13.780;2022-12-07T07:42:25;2.20;1.00
573;DHT22;271;51.114;13.780;2022-12-07T07:44:53;2.20;2.10
573;DHT22;271;51.114;13.780;2022-12-07T07:47:20;2.20;3.70
573;DHT22;271;51.114;13.780;2022-12-07T07:49:47;2.20;5.90
573;DHT22;271;51.114;13.780;2022-12-07T07:52:15;2.40;7.60
573;DHT22;271;51.114;13.780;2022-12-07T07:54:42;2.40;5.00
573;DHT22;271;51.114;13.780;2022-12-07T07:57:11;2.30;6.20
573;DHT22;271;51.114;13.780;2022-12-07T07:59:38;2.40;8.00
573;DHT22;271;51.114;13.780;2022-12-07T08:02:05;2.40;7.70
573;DHT22;271;51.114;13.780;2022-12-07T08:04:33;2.40;7.70
573;DHT22;271;51.114;13.780;2022-12-07T08:07:00;2.40;8.70
573;DHT22;271;51.114;13.780;2022-12-07T08:09:27;2.50;10.00
573;DHT22;271;51.114;13.780;2022-12-07T08:11:55;2.60;11.00
573;DHT22;271;51.114;13.780;2022-12-07T08:14:24;2.60;10.00
573;DHT22;271;51.114;13.780;2022-12-07T08:16:53;2.70;8.80
573;DHT22;271;51.114;13.780;2022-12-07T08:19:20;2.60;5.60
573;DHT22;271;51.114;13.780;2022-12-07T08:21:48;2.70;5.20
573;DHT22;271;51.114;13.780;2022-12-07T08:24:15;2.60;4.10
573;DHT22;271;51.114;13.780;2022-12-07T08:26:43;2.70;5.80
573;DHT22;271;51.114;13.780;2022-12-07T08:29:11;2.70;6.10
573;DHT22;271;51.114;13.780;2022-12-07T08:31:39;2.70;5.20
573;DHT22;271;51.114;13.780;2022-12-07T08:34:07;2.80;7.80
573;DHT22;271;51.114;13.780;2022-12-07T08:36:34;2.90;7.40
573;DHT22;271;51.114;13.780;2022-12-07T08:39:03;2.90;4.60
573;DHT22;271;51.114;13.780;2022-12-07T08:41:31;2.90;3.40
573;DHT22;271;51.114;13.780;2022-12-07T08:43:58;2.90;3.20
573;DHT22;271;51.114;13.780;2022-12-07T08:46:30;3.00;3.20
573;DHT22;271;51.114;13.780;2022-12-07T08:49:05;3.00;1.00
573;DHT22;271;51.114;13.780;2022-12-07T08:51:33;2.90;1.00
573;DHT22;271;51.114;13.780;2022-12-07T08:54:02;3.00;1.10
573;DHT22;271;51.114;13.780;2022-12-07T08:56:31;3.10;1.80
573;DHT22;271;51.114;13.780;2022-12-07T08:58:58;3.10;1.00
573;DHT22;271;51.114;13.780;2022-12-07T09:01:26;3.10;1.00
573;DHT22;271;51.114;13.780;2022-12-07T09:03:54;3.10;1.00
573;DHT22;271;51.114;13.780;2022-12-07T09:06:22;3.20;1.00
573;DHT22;271;51.114;13.780;2022-12-07T09:08:52;3.20;1.00
573;DHT22;271;51.114;13.780;2022-12-07T09:11:21;3.30;1.00
573;DHT22;271;51.114;13.780;2022-12-07T09:13:48;3.40;1.00
573;DHT22;271;51.114;13.780;2022-12-07T09:16:15;3.40;1.00
573;DHT22;271;51.114;13.780;2022-12-07T09:18:43;3.30;1.00
573;DHT22;271;51.114;13.780;2022-12-07T09:21:10;3.40;1.00
573;DHT22;271;51.114;13.780;2022-12-07T09:23:39;3.40;1.00
573;DHT22;271;51.114;13.780;2022-12-07T09:26:08;3.50;1.00
573;DHT22;271;51.114;13.780;2022-12-07T09:28:35;3.50;1.00
573;DHT22;271;51.114;13.780;2022-12-07T09:31:03;3.50;1.00
573;DHT22;271;51.114;13.780;2022-12-07T09:33:31;3.50;1.00
573;DHT22;271;51.114;13.780;2022-12-07T09:35:58;3.60;1.00
573;DHT22;271;51.114;13.780;2022-12-07T09:38:26;3.70;1.00
573;DHT22;271;51.114;13.780;2022-12-07T09:40:55;3.80;1.00
573;DHT22;271;51.114;13.780;2022-12-07T09:43:24;3.80;1.00
573;DHT22;271;51.114;13.780;2022-12-07T09:45:53;3.70;1.00
573;DHT22;271;51.114;13.780;2022-12-07T09:48:24;3.80;1.00
573;DHT22;271;51.114;13.780;2022-12-07T09:50:54;3.80;1.00
573;DHT22;271;51.114;13.780;2022-12-07T09:53:25;3.90;1.00
573;DHT22;271;51.114;13.780;2022-12-07T09:55:55;4.00;1.00
573;DHT22;271;51.114;13.780;2022-12-07T09:58:24;4.00;1.00
573;DHT22;271;51.114;13.780;2022-12-07T10:00:53;4.10;1.00
573;DHT22;271;51.114;13.780;2022-12-07T10:03:23;4.20;1.00
573;DHT22;271;51.114;13.780;2022-12-07T10:05:51;4.30;1.00
573;DHT22;271;51.114;13.780;2022-12-07T10:08:19;4.20;1.00
573;DHT22;271;51.114;13.780;2022-12-07T10:10:50;4.30;1.00
573;DHT22;271;51.114;13.780;2022-12-07T10:13:21;4.30;1.00
573;DHT22;271;51.114;13.780;2022-12-07T10:15:51;4.30;1.00
573;DHT22;271;51.114;13.780;2022-12-07T10:18:37;4.40;1.00
573;DHT22;271;51.114;13.780;2022-12-07T10:21:12;4.50;1.00
573;DHT22;271;51.114;13.780;2022-12-07T10:23:41;4.60;1.00
573;DHT22;271;51.114;13.780;2022-12-07T10:26:28;4.60;1.00
573;DHT22;271;51.114;13.780;2022-12-07T10:28:59;4.70;1.00
573;DHT22;271;51.114;13.780;2022-12-07T10:31:27;4.80;1.00
573;DHT22;271;51.114;13.780;2022-12-07T10:33:56;4.90;1.00
573;DHT22;271;51.114;13.780;2022-12-07T10:36:26;5.00;1.00
573;DHT22;271;51.114;13.780;2022-12-07T10:39:00;5.00;1.00
573;DHT22;271;51.114;13.780;2022-12-07T10:41:29;5.00;1.00
573;DHT22;271;51.114;13.780;2022-12-07T10:43:58;5.00;1.00
573;DHT22;271;51.114;13.780;2022-12-07T10:46:54;4.90;1.00
573;DHT22;271;51.114;13.780;2022-12-07T10:49:53;4.80;1.00
573;DHT22;271;51.114;13.780;2022-12-07T10:55:22;4.80;1.00
573;DHT22;271;51.114;13.780;2022-12-07T10:57:59;4.70;1.00
573;DHT22;271;51.114;13.780;2022-12-07T11:00:36;4.60;1.00
573;DHT22;271;51.114;13.780;2022-12-07T11:03:28;4.60;1.00
573;DHT22;271;51.114;13.780;2022-12-07T11:06:04;4.50;1.00
573;DHT22;271;51.114;13.780;2022-12-07T11:08:45;4.50;1.00
573;DHT22;271;51.114;13.780;2022-12-07T11:11:25;4.50;1.00
573;DHT22;271;51.114;13.780;2022-12-07T11:14:01;4.50;1.00
573;DHT22;271;51.114;13.780;2022-12-07T11:16:45;4.30;1.00
573;DHT22;271;51.114;13.780;2022-12-07T11:19:31;4.40;1.00
573;DHT22;271;51.114;13.780;2022-12-07T11:22:05;4.50;1.00
573;DHT22;271;51.114;13.780;2022-12-07T11:24:42;4.60;1.00
573;DHT22;271;51.114;13.780;2022-12-07T11:27:22;4.60;1.00
573;DHT22;271;51.114;13.780;2022-12-07T11:30:02;4.50;1.00
573;DHT22;271;51.114;13.780;2022-12-07T11:32:50;4.50;1.00
573;DHT22;271;51.114;13.780;2022-12-07T11:35:25;4.70;1.00
573;DHT22;271;51.114;13.780;2022-12-07T11:38:01;4.60;1.00
573;DHT22;271;51.114;13.780;2022-12-07T11:40:31;4.60;1.00
573;DHT22;271;51.114;13.780;2022-12-07T11:43:05;4.50;1.00
573;DHT22;271;51.114;13.780;2022-12-07T11:45:41;4.60;1.00
573;DHT22;271;51.114;13.780;2022-12-07T11:48:15;4.50;1.00
573;DHT22;271;51.114;13.780;2022-12-07T11:50:47;4.40;1.00
573;DHT22;271;51.114;13.780;2022-12-07T11:53:18;4.40;1.00
573;DHT22;271;51.114;13.780;2022-12-07T11:55:51;4.10;1.00
573;DHT22;271;51.114;13.780;2022-12-07T12:01:25;3.90;1.00
573;DHT22;271;51.114;13.780;2022-12-07T12:03:58;4.00;1.00
573;DHT22;271;51.114;13.780;2022-12-07T12:06:28;4.00;1.00
573;DHT22;271;51.114;13.780;2022-12-07T12:09:01;3.90;1.00
573;DHT22;271;51.114;13.780;2022-12-07T12:11:40;3.90;1.00
573;DHT22;271;51.114;13.780;2022-12-07T12:14:30;3.80;1.00
573;DHT22;271;51.114;13.780;2022-12-07T12:17:21;3.80;1.00
573;DHT22;271;51.114;13.780;2022-12-07T12:20:06;3.70;1.00
573;DHT22;271;51.114;13.780;2022-12-07T12:22:38;3.70;1.00
573;DHT22;271;51.114;13.780;2022-12-07T12:25:15;3.70;1.00
573;DHT22;271;51.114;13.780;2022-12-07T12:27:46;3.70;1.00
573;DHT22;271;51.114;13.780;2022-12-07T12:30:37;3.70;1.00
573;DHT22;271;51.114;13.780;2022-12-07T12:33:13;3.80;2.60
573;DHT22;271;51.114;13.780;2022-12-07T12:35:43;4.00;1.00
573;DHT22;271;51.114;13.780;2022-12-07T12:38:26;3.90;1.00
573;DHT22;271;51.114;13.780;2022-12-07T12:40:54;3.90;1.00
573;DHT22;271;51.114;13.780;2022-12-07T12:43:45;4.00;1.00
573;DHT22;271;51.114;13.780;2022-12-07T12:46:49;4.00;1.00
573;DHT22;271;51.114;13.780;2022-12-07T12:52:52;4.00;1.00
573;DHT22;271;51.114;13.780;2022-12-07T12:55:46;4.10;1.00
573;DHT22;271;51.114;13.780;2022-12-07T12:58:30;4.10;1.00
573;DHT22;271;51.114;13.780;2022-12-07T13:07:03;4.20;1.00
573;DHT22;271;51.114;13.780;2022-12-07T13:09:34;4.30;1.00
573;DHT22;271;51.114;13.780;2022-12-07T13:12:04;4.20;1.00
573;DHT22;271;51.114;13.780;2022-12-07T13:14:52;4.10;1.00
573;DHT22;271;51.114;13.780;2022-12-07T13:20:47;4.00;1.00
573;DHT22;271;51.114;13.780;2022-12-07T13:23:18;3.80;1.00
573;DHT22;271;51.114;13.780;2022-12-07T13:25:54;3.50;1.00
573;DHT22;271;51.114;13.780;2022-12-07T13:28:23;3.30;1.00
573;DHT22;271;51.114;13.780;2022-12-07T13:31:02;3.10;1.00
573;DHT22;271;51.114;13.780;2022-12-07T13:33:34;2.80;1.00
573;DHT22;271;51.114;13.780;2022-12-07T13:36:02;2.50;1.00
573;DHT22;271;51.114;13.780;2022-12-07T13:38:32;2.50;1.00
573;DHT22;271;51.114;13.780;2022-12-07T13:41:14;2.50;1.20
573;DHT22;271;51.114;13.780;2022-12-07T13:43:49;2.60;6.20
573;DHT22;271;51.114;13.780;2022-12-07T13:46:19;2.60;8.30
573;DHT22;271;51.114;13.780;2022-12-07T13:49:21;2.70;10.20
573;DHT22;271;51.114;13.780;2022-12-07T13:52:17;2.90;13.30
573;DHT22;271;51.114;13.780;2022-12-07T13:55:14;3.00;13.00
573;DHT22;271;51.114;13.780;2022-12-07T13:58:07;3.00;13.90
573;DHT22;271;51.114;13.780;2022-12-07T14:01:26;3.20;14.90
573;DHT22;271;51.114;13.780;2022-12-07T14:04:35;3.30;15.10
573;DHT22;271;51.114;13.780;2022-12-07T14:07:24;3.30;13.80
573;DHT22;271;51.114;13.780;2022-12-07T14:09:57;3.40;14.70
573;DHT22;271;51.114;13.780;2022-12-07T14:12:26;3.40;12.60
573;DHT22;271;51.114;13.780;2022-12-07T14:14:56;3.40;12.30
573;DHT22;271;51.114;13.780;2022-12-07T14:17:25;3.40;10.70
573;DHT22;271;51.114;13.780;2022-12-07T14:19:55;3.50;10.90
573;DHT22;271;51.114;13.780;2022-12-07T14:22:25;3.50;9.40
573;DHT22;271;51.114;13.780;2022-12-07T14:24:59;3.50;9.60
573;DHT22;271;51.114;13.780;2022-12-07T14:27:31;3.50;9.70
573;DHT22;271;51.114;13.780;2022-12-07T14:30:03;3.50;9.00
573;DHT22;271;51.114;13.780;2022-12-07T14:32:35;3.60;9.90
573;DHT22;271;51.114;13.780;2022-12-07T14:35:10;3.60;8.30
573;DHT22;271;51.114;13.780;2022-12-07T14:37:39;3.60;9.70
573;DHT22;271;51.114;13.780;2022-12-07T14:40:11;3.60;7.40
573;DHT22;271;51.114;13.780;2022-12-07T14:42:39;3.60;7.40
573;DHT22;271;51.114;13.780;2022-12-07T14:45:16;3.60;8.80
573;DHT22;271;51.114;13.780;2022-12-07T14:47:44;3.60;7.70
573;DHT22;271;51.114;13.780;2022-12-07T14:50:13;3.60;8.10
573;DHT22;271;51.114;13.780;2022-12-07T14:52:43;3.60;10.50
573;DHT22;271;51.114;13.780;2022-12-07T14:55:16;3.60;10.40
573;DHT22;271;51.114;13.780;2022-12-07T14:57:46;3.50;9.60
573;DHT22;271;51.114;13.780;2022-12-07T15:00:17;3.50;9.40
573;DHT22;271;51.114;13.780;2022-12-07T15:02:45;3.60;10.90
573;DHT22;271;51.114;13.780;2022-12-07T15:05:13;3.60;8.30
573;DHT22;271;51.114;13.780;2022-12-07T15:07:40;3.60;9.40
573;DHT22;271;51.114;13.780;2022-12-07T15:10:14;3.50;8.80
573;DHT22;271;51.114;13.780;2022-12-07T15:12:42;3.50;10.40
573;DHT22;271;51.114;13.780;2022-12-07T15:15:09;3.50;11.20
573;DHT22;271;51.114;13.780;2022-12-07T15:17:38;3.50;10.80
573;DHT22;271;51.114;13.780;2022-12-07T15:20:09;3.50;10.10
573;DHT22;271;51.114;13.780;2022-12-07T15:22:38;3.50;11.20
573;DHT22;271;51.114;13.780;2022-12-07T15:25:06;3.60;12.30
573;DHT22;271;51.114;13.780;2022-12-07T15:27:33;3.50;12.90
573;DHT22;271;51.114;13.780;2022-12-07T15:30:01;3.30;4.40
573;DHT22;271;51.114;13.780;2022-12-07T15:32:28;3.20;3.00
573;DHT22;271;51.114;13.780;2022-12-07T15:34:57;3.20;1.00
573;DHT22;271;51.114;13.780;2022-12-07T15:37:24;3.10;1.00
573;DHT22;271;51.114;13.780;2022-12-07T15:39:52;3.00;2.20
573;DHT22;271;51.114;13.780;2022-12-07T15:42:19;2.90;2.10
573;DHT22;271;51.114;13.780;2022-12-07T15:44:47;2.80;3.20
573;DHT22;271;51.114;13.780;2022-12-07T15:47:31;2.90;3.60
573;DHT22;271;51.114;13.780;2022-12-07T15:50:00;2.80;1.20
573;DHT22;271;51.114;13.780;2022-12-07T15:52:28;2.80;1.70
573;DHT22;271;51.114;13.780;2022-12-07T15:54:55;2.80;4.00
573;DHT22;271;51.114;13.780;2022-12-07T15:57:22;2.80;2.90
573;DHT22;271;51.114;13.780;2022-12-07T15:59:50;2.90;4.40
573;DHT22;271;51.114;13.780;2022-12-07T16:02:17;2.90;4.20
573;DHT22;271;51.114;13.780;2022-12-07T16:04:45;2.90;4.90
573;DHT22;271;51.114;13.780;2022-12-07T16:07:13;2.90;3.10
573;DHT22;271;51.114;13.780;2022-12-07T16:09:41;3.00;4.00
573;DHT22;271;51.114;13.780;2022-12-07T16:12:09;3.00;4.00
573;DHT22;271;51.114;13.780;2022-12-07T16:14:37;3.00;1.70
573;DHT22;271;51.114;13.780;2022-12-07T16:17:04;3.00;1.00
573;DHT22;271;51.114;13.780;2022-12-07T16:19:32;3.00;1.70
573;DHT22;271;51.114;13.780;2022-12-07T16:22:00;2.90;1.00
573;DHT22;271;51.114;13.780;2022-12-07T16:24:30;2.90;3.30
573;DHT22;271;51.114;13.780;2022-12-07T16:26:57;2.90;5.10
573;DHT22;271;51.114;13.780;2022-12-07T16:29:25;3.00;6.80
573;DHT22;271;51.114;13.780;2022-12-07T16:31:52;3.00;8.70
573;DHT22;271;51.114;13.780;2022-12-07T16:34:19;3.00;9.30
573;DHT22;271;51.114;13.780;2022-12-07T16:36:47;3.10;8.60
573;DHT22;271;51.114;13.780;2022-12-07T16:39:14;3.20;5.80
573;DHT22;271;51.114;13.780;2022-12-07T16:41:58;3.20;5.80
573;DHT22;271;51.114;13.780;2022-12-07T16:44:31;3.20;3.30
573;DHT22;271;51.114;13.780;2022-12-07T16:46:58;3.30;1.00
573;DHT22;271;51.114;13.780;2022-12-07T16:49:26;3.30;1.00
573;DHT22;271;51.114;13.780;2022-12-07T16:51:54;3.40;1.00
573;DHT22;271;51.114;13.780;2022-12-07T16:54:21;3.30;1.00
573;DHT22;271;51.114;13.780;2022-12-07T16:56:50;3.30;1.00
573;DHT22;271;51.114;13.780;2022-12-07T16:59:17;3.20;1.00
573;DHT22;271;51.114;13.780;2022-12-07T17:01:44;3.30;1.00
573;DHT22;271;51.114;13.780;2022-12-07T17:04:12;3.20;1.00
573;DHT22;271;51.114;13.780;2022-12-07T17:06:39;3.20;1.00
573;DHT22;271;51.114;13.780;2022-12-07T17:09:07;3.20;1.00
573;DHT22;271;51.114;13.780;2022-12-07T17:11:35;3.30;1.00
573;DHT22;271;51.114;13.780;2022-12-07T17:14:04;3.30;1.00
573;DHT22;271;51.114;13.780;2022-12-07T17:16:49;3.30;1.00
573;DHT22;271;51.114;13.780;2022-12-07T17:19:16;3.30;1.00
573;DHT22;271;51.114;13.780;2022-12-07T17:21:44;3.20;1.00
573;DHT22;271;51.114;13.780;2022-12-07T17:24:13;3.40;1.00
573;DHT22;271;51.114;13.780;2022-12-07T17:26:42;3.20;1.00
573;DHT22;271;51.114;13.780;2022-12-07T17:29:13;3.40;1.00
573;DHT22;271;51.114;13.780;2022-12-07T17:31:40;3.30;1.00
573;DHT22;271;51.114;13.780;2022-12-07T17:34:10;3.30;1.00
573;DHT22;271;51.114;13.780;2022-12-07T17:36:38;3.30;1.00
573;DHT22;271;51.114;13.780;2022-12-07T17:39:06;3.30;1.00
573;DHT22;271;51.114;13.780;2022-12-07T17:41:35;3.40;1.00